Time;durP1;ratioP1;P1;durP2;ratioP2;P2;SDS_P1;SDS_P2;PMS_P1;PMS_P2;Temp;Humidity;BMP_temperature;BMP_pressure;BME280_temperature;BME280_humidity;BME280_pressure;Samples;Min_cycle;Max_cycle;Signal;HPM_P1;HPM_P2
2023/01/31 00:03:14;;;;;;;0.20;0.10;;;5.70;99.90;;;;;;21306153;27;20787;-68
2023/01/31 00:13:19;;;;;;;0.20;0.10;;;6.30;99.90;;;;;;21305396;27;20395;-68
2023/01/31 00:23:23;;;;;;;0.20;0.10;;;6.80;99.90;;;;;;21304090;27;20424;-69
2023/01/31 00:33:29;;;;;;;0.20;0.10;;;6.70;99.90;;;;;;21302390;27;20453;-69
2023/01/31 00:43:33;;;;;;;0.20;0.10;;;6.50;99.90;;;;;;21235414;27;20393;-69
2023/01/31 00:53:39;;;;;;;0.20;0.10;;;6.90;99.90;;;;;;21216717;27;20803;-69
2023/01/31 01:03:45;;;;;;;0.20;0.10;;;6.80;99.90;;;;;;21215671;27;20440;-69
2023/01/31 01:13:51;;;;;;;0.20;0.10;;;7.20;99.90;;;;;;21215462;27;20881;-69
2023/01/31 01:23:58;;;;;;;0.20;0.00;;;7.00;99.90;;;;;;21214723;27;20490;-69
2023/01/31 01:34:05;;;;;;;0.20;0.10;;;6.80;99.90;;;;;;21174815;27;20460;-69
2023/01/31 01:44:42;;;;;;;0.20;0.10;;;6.50;99.90;;;;;;21146793;28;20403;-67
2023/01/31 01:54:53;;;;;;;0.20;0.10;;;6.30;99.90;;;;;;21155075;27;20416;-72
2023/01/31 02:04:57;;;;;;;6.50;6.10;;;6.40;99.90;;;;;;21211762;27;20476;-67
2023/01/31 02:15:03;;;;;;;0.20;0.10;;;6.40;99.90;;;;;;21212314;27;20451;-68
2023/01/31 02:25:48;;;;;;;0.20;0.10;;;6.00;99.90;;;;;;21194111;27;20802;-67
2023/01/31 02:36:04;;;;;;;0.20;0.10;;;6.00;99.90;;;;;;21189108;27;20432;-68
2023/01/31 02:46:12;;;;;;;0.20;0.10;;;6.10;99.90;;;;;;21144094;28;20892;-68
2023/01/31 02:56:22;;;;;;;0.20;0.10;;;6.00;99.90;;;;;;21125736;28;20456;-67
2023/01/31 03:06:53;;;;;;;0.20;0.10;;;6.10;99.90;;;;;;21150989;28;20458;-67
2023/01/31 03:27:26;;;;;;;0.20;0.10;;;6.60;99.90;;;;;;21121934;28;20442;-68
2023/01/31 03:37:37;;;;;;;0.20;0.10;;;6.60;99.90;;;;;;21188145;27;20402;-67
2023/01/31 03:47:44;;;;;;;0.20;0.10;;;6.40;99.90;;;;;;21240325;27;20807;-67
2023/01/31 03:57:53;;;;;;;0.20;0.10;;;6.00;99.90;;;;;;21220931;27;20517;-66
2023/01/31 04:07:56;;;;;;;0.20;0.10;;;5.90;99.90;;;;;;21220636;27;20434;-67
2023/01/31 04:18:02;;;;;;;0.20;0.10;;;6.30;99.90;;;;;;21218187;27;20536;-67
2023/01/31 04:28:05;;;;;;;0.20;0.10;;;6.30;99.90;;;;;;21237331;27;20470;-67
2023/01/31 04:38:11;;;;;;;0.20;0.10;;;5.80;99.90;;;;;;21161101;27;20415;-67
2023/01/31 04:48:14;;;;;;;0.20;0.10;;;5.80;99.90;;;;;;21170734;27;20455;-68
2023/01/31 04:58:20;;;;;;;0.20;0.10;;;5.70;99.90;;;;;;21221141;27;20794;-68
2023/01/31 05:08:24;;;;;;;0.20;0.10;;;5.80;99.90;;;;;;21215711;27;20403;-68
2023/01/31 05:18:29;;;;;;;0.20;0.10;;;6.10;99.90;;;;;;21233408;27;20752;-68
2023/01/31 05:28:32;;;;;;;0.20;0.10;;;6.20;99.90;;;;;;21214297;27;20446;-68
2023/01/31 05:38:38;;;;;;;0.20;0.10;;;6.30;99.90;;;;;;21186522;27;20416;-67
2023/01/31 05:48:41;;;;;;;0.20;0.10;;;5.90;99.90;;;;;;21120216;28;20914;-68
2023/01/31 05:58:49;;;;;;;0.20;0.10;;;5.90;99.90;;;;;;21127524;28;20467;-68
2023/01/31 06:08:53;;;;;;;0.20;0.10;;;5.80;99.90;;;;;;21143246;28;20810;-68
2023/01/31 06:18:58;;;;;;;0.20;0.10;;;5.60;99.90;;;;;;21144885;28;20422;-67
2023/01/31 06:29:02;;;;;;;0.20;0.10;;;5.50;99.90;;;;;;21143568;28;20441;-68
2023/01/31 06:39:07;;;;;;;0.20;0.10;;;5.70;99.90;;;;;;21146745;28;20406;-69
2023/01/31 06:49:12;;;;;;;0.20;0.10;;;5.70;99.90;;;;;;21156785;28;20889;-67
2023/01/31 06:59:18;;;;;;;0.20;0.10;;;5.60;99.90;;;;;;21201381;27;20476;-68
2023/01/31 07:09:22;;;;;;;0.20;0.10;;;5.50;99.90;;;;;;21239136;27;20952;-70
2023/01/31 07:19:29;;;;;;;0.20;0.10;;;5.30;99.90;;;;;;21232618;27;20426;-69
2023/01/31 07:29:33;;;;;;;0.20;0.10;;;5.40;99.90;;;;;;21239453;27;20929;-69
2023/01/31 07:39:42;;;;;;;0.20;0.10;;;5.90;99.90;;;;;;21228609;27;20445;-67
2023/01/31 07:49:47;;;;;;;0.20;0.10;;;5.90;99.90;;;;;;21234427;27;20406;-68
2023/01/31 07:59:53;;;;;;;0.20;0.10;;;6.10;99.90;;;;;;21230863;27;20907;-71
2023/01/31 08:09:57;;;;;;;0.20;0.10;;;6.50;99.90;;;;;;21235777;27;20797;-71
2023/01/31 08:20:02;;;;;;;0.20;0.10;;;6.70;99.90;;;;;;21227061;27;20560;-69
2023/01/31 08:30:08;;;;;;;0.20;0.10;;;6.90;99.90;;;;;;21234018;27;20477;-70
2023/01/31 08:40:14;;;;;;;0.20;0.10;;;7.10;99.90;;;;;;21232733;27;20445;-68
2023/01/31 08:50:18;;;;;;;0.20;0.10;;;7.30;99.90;;;;;;21233729;27;20405;-69
2023/01/31 09:00:32;;;;;;;0.20;0.10;;;7.40;99.90;;;;;;21230914;27;20467;-69
2023/01/31 09:10:37;;;;;;;0.20;0.10;;;8.00;99.90;;;;;;21232432;27;20427;-70
2023/01/31 09:20:42;;;;;;;0.20;0.10;;;8.50;99.90;;;;;;21230971;27;20880;-68
2023/01/31 09:30:46;;;;;;;0.20;0.10;;;9.10;99.90;;;;;;21210852;27;20401;-76
2023/01/31 09:40:51;;;;;;;0.20;0.10;;;9.50;99.90;;;;;;21230965;27;20761;-69
2023/01/31 09:50:58;;;;;;;0.20;0.10;;;10.00;99.90;;;;;;21227686;27;20404;-70
2023/01/31 10:01:14;;;;;;;0.20;0.10;;;10.70;99.90;;;;;;21227314;27;20409;-68
2023/01/31 10:11:27;;;;;;;0.20;0.10;;;11.10;99.90;;;;;;21227571;27;20518;-68
2023/01/31 10:21:38;;;;;;;0.20;0.10;;;11.30;99.90;;;;;;21172463;27;20492;-67
2023/01/31 10:31:49;;;;;;;0.20;0.10;;;11.90;99.90;;;;;;21238010;27;20869;-69
2023/01/31 10:42:08;;;;;;;0.20;0.10;;;12.40;99.90;;;;;;21156976;28;20398;-69
2023/01/31 10:52:27;;;;;;;0.20;0.10;;;12.40;99.90;;;;;;21156184;28;20769;-70
2023/01/31 11:02:33;;;;;;;0.20;0.00;;;12.80;99.90;;;;;;21157900;28;20964;-71
2023/01/31 11:12:42;;;;;;;0.20;0.10;;;14.50;99.90;;;;;;21154511;28;20413;-69
2023/01/31 11:22:47;;;;;;;0.20;0.10;;;14.90;99.90;;;;;;21155223;28;20448;-69
2023/01/31 11:32:51;;;;;;;0.20;0.10;;;15.40;99.90;;;;;;21154265;28;20420;-68
2023/01/31 11:42:57;;;;;;;0.20;0.10;;;15.70;99.90;;;;;;21152749;28;20399;-67
2023/01/31 11:53:03;;;;;;;0.20;0.10;;;15.90;99.90;;;;;;21151310;28;20397;-68
2023/01/31 12:03:16;;;;;;;0.20;0.10;;;16.20;99.90;;;;;;21152277;28;20497;-67
2023/01/31 12:13:21;;;;;;;0.20;0.10;;;16.80;99.90;;;;;;21149755;28;20939;-65
2023/01/31 12:23:38;;;;;;;0.20;0.10;;;16.60;99.90;;;;;;21133350;28;20914;-68
2023/01/31 12:34:06;;;;;;;0.20;0.10;;;17.10;99.90;;;;;;21130910;28;20928;-68
2023/01/31 12:44:37;;;;;;;0.20;0.10;;;17.10;99.90;;;;;;21147047;28;20891;-69
2023/01/31 12:54:57;;;;;;;0.20;0.10;;;18.10;99.90;;;;;;21144303;28;20931;-68
2023/01/31 13:05:12;;;;;;;0.20;0.10;;;17.90;99.90;;;;;;21213349;27;20564;-68
2023/01/31 13:15:21;;;;;;;0.20;0.10;;;17.80;99.90;;;;;;21165874;27;20410;-68
2023/01/31 13:25:37;;;;;;;0.20;0.10;;;17.60;99.90;;;;;;21144848;28;20444;-70
2023/01/31 13:35:43;;;;;;;0.30;0.30;;;17.10;99.90;;;;;;21194862;27;20458;-69
2023/01/31 13:45:53;;;;;;;0.20;0.10;;;17.30;99.90;;;;;;21238447;27;20745;-68
2023/01/31 13:55:57;;;;;;;0.20;0.05;;;17.40;99.90;;;;;;21297441;27;20526;-68
2023/01/31 14:06:03;;;;;;;0.20;0.10;;;18.60;99.90;;;;;;21314590;27;20379;-67
2023/01/31 14:16:34;;;;;;;0.20;0.10;;;18.50;99.90;;;;;;21194407;27;20403;-68
2023/01/31 14:26:53;;;;;;;0.20;0.10;;;18.70;99.90;;;;;;21242608;27;20404;-68
2023/01/31 14:37:09;;;;;;;0.20;0.10;;;19.10;99.90;;;;;;21226381;27;20945;-68
2023/01/31 14:47:30;;;;;;;0.20;0.10;;;19.50;99.90;;;;;;21226507;27;20456;-68
2023/01/31 14:57:41;;;;;;;0.20;0.10;;;19.60;99.90;;;;;;21208067;27;20615;-69
2023/01/31 15:08:28;;;;;;;0.20;0.10;;;18.80;99.90;;;;;;21241932;27;20393;-67
2023/01/31 15:18:33;;;;;;;0.20;0.10;;;19.90;99.90;;;;;;21155789;28;20411;-68
2023/01/31 15:28:43;;;;;;;0.20;0.00;;;19.70;99.90;;;;;;21136307;28;20482;-68
2023/01/31 15:38:52;;;;;;;0.20;0.10;;;19.90;99.90;;;;;;21195939;27;20410;-67
2023/01/31 15:48:58;;;;;;;0.20;0.10;;;17.70;99.90;;;;;;21237734;27;20481;-69
2023/01/31 15:59:10;;;;;;;0.20;0.10;;;17.00;99.90;;;;;;21202260;27;20408;-67
2023/01/31 16:09:25;;;;;;;0.20;0.10;;;15.80;99.90;;;;;;21223455;27;20422;-69
2023/01/31 16:19:31;;;;;;;0.20;0.10;;;16.30;99.90;;;;;;21131741;28;20446;-68
2023/01/31 16:29:42;;;;;;;0.20;0.10;;;15.90;99.90;;;;;;21207527;27;20405;-68
2023/01/31 16:39:49;;;;;;;0.20;0.10;;;14.60;99.90;;;;;;21195224;27;20408;-68
2023/01/31 16:50:27;;;;;;;0.20;0.00;;;13.40;99.90;;;;;;21212146;27;20747;-68
2023/01/31 17:00:46;;;;;;;0.20;0.10;;;12.70;99.90;;;;;;21192273;27;20405;-67
2023/01/31 17:10:51;;;;;;;0.20;0.00;;;12.20;99.90;;;;;;21185996;27;20394;-68
2023/01/31 17:20:55;;;;;;;0.20;0.00;;;11.60;99.90;;;;;;21125795;28;20417;-67
2023/01/31 17:31:00;;;;;;;0.20;0.10;;;10.70;99.90;;;;;;21144926;28;20429;-69
2023/01/31 17:41:05;;;;;;;0.20;0.10;;;9.90;99.90;;;;;;21140047;28;20968;-68
2023/01/31 17:51:10;;;;;;;0.20;0.10;;;9.30;99.90;;;;;;21141544;28;20410;-68
2023/01/31 18:01:14;;;;;;;0.20;0.10;;;9.00;99.90;;;;;;21107173;28;20521;-65
2023/01/31 18:11:19;;;;;;;0.20;0.10;;;8.70;99.90;;;;;;21118865;28;20455;-69
2023/01/31 18:21:24;;;;;;;0.20;0.00;;;8.40;99.90;;;;;;21136919;28;20418;-69
2023/01/31 18:31:29;;;;;;;0.20;0.00;;;8.20;99.90;;;;;;21137991;28;20806;-70
2023/01/31 18:41:34;;;;;;;0.20;0.10;;;7.80;99.90;;;;;;21133886;28;20406;-67
2023/01/31 18:51:40;;;;;;;0.20;0.10;;;7.80;99.90;;;;;;21135221;28;20394;-70
2023/01/31 19:01:44;;;;;;;0.60;0.60;;;7.60;99.90;;;;;;21153080;28;20448;-70
2023/01/31 19:11:49;;;;;;;0.20;0.10;;;7.50;99.90;;;;;;21148818;28;20399;-68
2023/01/31 19:21:53;;;;;;;0.20;0.10;;;7.40;99.90;;;;;;21132879;28;20464;-68
2023/01/31 19:31:58;;;;;;;0.20;0.10;;;7.30;99.90;;;;;;21217535;27;21137;-69
2023/01/31 19:42:03;;;;;;;0.20;0.10;;;7.60;99.90;;;;;;21194653;27;20414;-69
2023/01/31 19:52:08;;;;;;;0.20;0.10;;;7.20;99.90;;;;;;21212819;27;20905;-69
2023/01/31 20:02:12;;;;;;;0.20;0.10;;;7.50;99.90;;;;;;21226953;27;20469;-69
2023/01/31 20:12:17;;;;;;;37.67;34.78;;;7.50;99.90;;;;;;21232281;27;20397;-70
2023/01/31 20:22:21;;;;;;;0.20;0.10;;;7.40;99.90;;;;;;21214140;27;20456;-69
2023/01/31 20:32:26;;;;;;;0.20;0.00;;;7.50;99.90;;;;;;21212262;27;20740;-70
2023/01/31 20:42:32;;;;;;;5.20;4.80;;;7.00;99.90;;;;;;21212351;27;20572;-69
2023/01/31 20:52:37;;;;;;;0.20;0.10;;;7.40;99.90;;;;;;21229078;27;20457;-69
2023/01/31 21:02:41;;;;;;;0.20;0.10;;;7.60;99.90;;;;;;21261188;27;20506;-70
2023/01/31 21:12:46;;;;;;;0.20;0.10;;;7.70;99.90;;;;;;21213847;27;20995;-70
2023/01/31 21:22:50;;;;;;;0.20;0.10;;;7.40;99.90;;;;;;21231155;27;20894;-69
2023/01/31 21:32:55;;;;;;;0.20;0.10;;;7.20;99.90;;;;;;21206361;27;20381;-69
2023/01/31 21:42:58;;;;;;;0.20;0.10;;;7.00;99.90;;;;;;21208042;28;20481;-69
2023/01/31 21:53:04;;;;;;;0.20;0.10;;;6.90;99.90;;;;;;21226839;28;20393;-70
2023/01/31 22:03:07;;;;;;;0.20;0.10;;;6.80;99.90;;;;;;21202595;27;20405;-69
2023/01/31 22:13:13;;;;;;;0.20;0.10;;;6.30;99.90;;;;;;21206484;27;20397;-69
2023/01/31 22:23:16;;;;;;;0.20;0.10;;;6.40;99.90;;;;;;21208159;28;20502;-69
2023/01/31 22:33:22;;;;;;;0.20;0.10;;;6.50;99.90;;;;;;21138825;28;2057376;-69
2023/01/31 22:43:25;;;;;;;0.20;0.10;;;6.20;99.90;;;;;;21145199;28;20419;-69
2023/01/31 22:53:32;;;;;;;0.20;0.05;;;5.80;99.90;;;;;;21228687;28;20389;-69
2023/01/31 23:03:37;;;;;;;0.20;0.10;;;5.60;99.90;;;;;;21228169;28;20466;-68
2023/01/31 23:13:43;;;;;;;0.20;0.10;;;5.30;99.90;;;;;;21209711;28;20473;-69
2023/01/31 23:23:47;;;;;;;0.20;0.10;;;5.50;99.90;;;;;;21235483;27;20412;-69
2023/01/31 23:33:52;;;;;;;0.20;0.10;;;5.50;99.90;;;;;;21224095;27;20389;-68
2023/01/31 23:43:56;;;;;;;0.20;0.10;;;5.60;99.90;;;;;;21222904;27;20474;-68
2023/01/31 23:54:01;;;;;;;0.20;0.10;;;5.40;99.90;;;;;;21241644;27;20800;-69
